»·PEaware :: N305EL KSLC-KDEN

N305EL :: KSLC-KDEN

FLIGHT INFORMATION

Flight Status: Arrived
Operator: Privately registered:
United States
More flights under this callsign
Pilot: Cullen C. (26241)
Aircraft: BEECH AIRCRAFT A90-E90 KING AIR
(BE9L)
More flights by this aircraft type
Origin: KSLC Salt Lake City Intl
United States
Destination: KDEN Denver Intl
United States
More flights between these airports :: More routes between these airports
Route: +SLC4 OCS RAMMS8
File this flight plan on PilotEdge
Remarks:
Altitude:
(Current/Filed)
25,000ft
Speed:
(Current/Filed)
230kts
Departed: 12-Oct-20 04:23 PM
Arrived: 12-Oct-20 06:00 PM
Distance/Time
Traveled:
339nm/1:37
Distance/Time
To Go:
Arrived

Flight Plot

Page will automatically refresh every two minutes.

Flight plan parsing failed; only flown route is shown


Map Options




Map Legend


Flown Route
Filed Route
Departure Airport
Arrival Airport
Navaid (VOR, NDB)
Fix

Horizontal Profiles

Position Reports

Time Latitude Longitude Heading Altitude Ground
Speed
12-Oct-20 16:06 40.775648 -111.958739 358 4222ft 0kts
12-Oct-20 16:06 40.775648 -111.958739 358 4222ft 0kts
12-Oct-20 16:08 40.775648 -111.958739 358 4222ft 0kts
12-Oct-20 16:08 40.775648 -111.958739 358 4222ft 0kts
12-Oct-20 16:10 40.775648 -111.958739 358 4222ft 0kts
12-Oct-20 16:10 40.775648 -111.958739 358 4222ft 0kts
12-Oct-20 16:12 40.775648 -111.958739 358 4222ft 0kts
12-Oct-20 16:12 40.775648 -111.958739 358 4222ft 0kts
12-Oct-20 16:13 40.775648 -111.958739 358 4222ft 0kts
12-Oct-20 16:14 40.775648 -111.958739 358 4222ft 0kts
12-Oct-20 16:15 40.775648 -111.958739 358 4222ft 0kts
12-Oct-20 16:16 40.775648 -111.958739 358 4222ft 0kts
12-Oct-20 16:17 40.776353 -111.959787 277 4222ft 0kts
12-Oct-20 16:18 40.776024 -111.960596 189 4222ft 17kts
12-Oct-20 16:19 40.772948 -111.960701 216 4222ft 0kts
12-Oct-20 16:20 40.772948 -111.960701 216 4222ft 0kts
12-Oct-20 16:21 40.772948 -111.960701 216 4222ft 0kts
12-Oct-20 16:22 40.777577 -111.962120 2 4308ft 94kts
12-Oct-20 16:23 40.808695 -112.000272 306 5561ft 212kts
12-Oct-20 16:24 40.842630 -112.062531 306 6558ft 205kts
12-Oct-20 16:25 40.875861 -112.122942 306 7555ft 200kts
12-Oct-20 16:26 40.907580 -112.179681 306 8892ft 182kts
12-Oct-20 16:27 40.936902 -112.230623 306 10376ft 168kts
12-Oct-20 16:28 40.964901 -112.277320 306 11858ft 158kts
12-Oct-20 16:29 40.992017 -112.320461 306 13342ft 148kts
12-Oct-20 16:30 41.017704 -112.359720 306 14819ft 135kts
12-Oct-20 16:31 41.041820 -112.394831 306 16185ft 127kts
12-Oct-20 16:32 41.072039 -112.410380 36 17374ft 167kts
12-Oct-20 16:33 41.080681 -112.348080 83 18559ft 173kts
12-Oct-20 16:34 41.084576 -112.285510 82 19638ft 170kts
12-Oct-20 16:35 41.092679 -112.224904 66 20600ft 165kts
12-Oct-20 16:36 41.104831 -112.168403 66 21483ft 163kts
12-Oct-20 16:37 41.111779 -112.105214 79 22188ft 180kts
12-Oct-20 16:38 41.123155 -112.040572 63 23005ft 184kts
12-Oct-20 16:39 41.135524 -111.974816 60 24020ft 182kts
12-Oct-20 16:40 41.153275 -111.912704 67 24920ft 189kts
12-Oct-20 16:41 41.165375 -111.839449 73 25229ft 231kts
12-Oct-20 16:42 41.180228 -111.749220 70 25222ft 265kts
12-Oct-20 16:43 41.196544 -111.650113 71 25223ft 282kts
12-Oct-20 16:44 41.213236 -111.546663 71 25236ft 288kts
12-Oct-20 16:45 41.230018 -111.441940 71 25265ft 291kts
12-Oct-20 16:46 41.246815 -111.336511 72 25283ft 293kts
12-Oct-20 16:47 41.263534 -111.230871 72 25281ft 292kts
12-Oct-20 16:48 41.280208 -111.124867 72 25282ft 292kts
12-Oct-20 16:49 41.296784 -111.018778 72 25283ft 294kts
12-Oct-20 16:50 41.313378 -110.911938 71 25285ft 296kts
12-Oct-20 16:51 41.329964 -110.804509 71 25284ft 298kts
12-Oct-20 16:52 41.346565 -110.696230 71 25277ft 299kts
12-Oct-20 16:53 41.363188 -110.587089 72 25268ft 300kts
12-Oct-20 16:54 41.379685 -110.478011 72 25259ft 301kts
12-Oct-20 16:55 41.396097 -110.368796 72 25255ft 301kts
12-Oct-20 16:56 41.412364 -110.259723 72 25243ft 300kts
12-Oct-20 16:57 41.428543 -110.150609 72 25245ft 299kts
12-Oct-20 16:58 41.444520 -110.042061 72 25246ft 299kts
12-Oct-20 16:59 41.460402 -109.933406 72 25247ft 299kts
12-Oct-20 17:00 41.476231 -109.824337 72 25237ft 300kts
12-Oct-20 17:01 41.492005 -109.714906 72 25221ft 300kts
12-Oct-20 17:02 41.507694 -109.605303 72 25215ft 301kts
12-Oct-20 17:03 41.523227 -109.496026 72 25216ft 301kts
12-Oct-20 17:04 41.538758 -109.385962 72 25217ft 301kts
12-Oct-20 17:05 41.554118 -109.276249 73 25206ft 300kts
12-Oct-20 17:06 41.569342 -109.166768 73 25208ft 299kts
12-Oct-20 17:07 41.584410 -109.057604 73 25209ft 299kts
12-Oct-20 17:08 41.575296 -108.947679 106 25211ft 306kts
12-Oct-20 17:09 41.551116 -108.838580 107 25212ft 307kts
12-Oct-20 17:10 41.526827 -108.729492 107 25213ft 308kts
12-Oct-20 17:11 41.502343 -108.620113 107 25215ft 308kts
12-Oct-20 17:12 41.477691 -108.510527 107 25216ft 309kts
12-Oct-20 17:13 41.452920 -108.400914 107 25218ft 309kts
12-Oct-20 17:14 41.427977 -108.291129 108 25207ft 308kts
12-Oct-20 17:15 41.403067 -108.182064 107 25215ft 307kts
12-Oct-20 17:16 41.378149 -108.073414 107 25230ft 306kts
12-Oct-20 17:17 41.353149 -107.964985 107 25238ft 307kts
12-Oct-20 17:18 41.327938 -107.856151 107 25240ft 308kts
12-Oct-20 17:19 41.302715 -107.747770 107 25241ft 308kts
12-Oct-20 17:20 41.277218 -107.638778 107 25243ft 309kts
12-Oct-20 17:21 41.251557 -107.529635 107 25244ft 309kts
12-Oct-20 17:22 41.225904 -107.420930 107 25246ft 310kts
12-Oct-20 17:23 41.199992 -107.311761 108 25235ft 309kts
12-Oct-20 17:24 41.174121 -107.203248 108 25226ft 308kts
12-Oct-20 17:25 41.148192 -107.094988 108 25212ft 308kts
12-Oct-20 17:26 41.122053 -106.986368 108 25202ft 309kts
12-Oct-20 17:27 41.095809 -106.877847 109 25209ft 310kts
12-Oct-20 17:28 41.069434 -106.769277 109 25216ft 310kts
12-Oct-20 17:29 41.042565 -106.659238 109 24875ft 319kts
12-Oct-20 17:30 41.014891 -106.546392 109 24319ft 322kts
12-Oct-20 17:31 40.987248 -106.434197 109 23760ft 319kts
12-Oct-20 17:32 40.959839 -106.323498 110 23190ft 314kts
12-Oct-20 17:33 40.932811 -106.214834 110 22577ft 310kts
12-Oct-20 17:34 40.905784 -106.106663 110 21971ft 308kts
12-Oct-20 17:35 40.878818 -105.999223 110 21368ft 307kts
12-Oct-20 17:36 40.851933 -105.892586 110 20772ft 306kts
12-Oct-20 17:37 40.824977 -105.786125 111 20181ft 305kts
12-Oct-20 17:38 40.797996 -105.680059 111 19596ft 304kts
12-Oct-20 17:39 40.770975 -105.574280 111 19076ft 302kts
12-Oct-20 17:40 40.729040 -105.484916 146 18589ft 286kts
12-Oct-20 17:42 40.667108 -105.419633 147 18118ft 285kts
12-Oct-20 17:43 40.604913 -105.354688 147 17648ft 285kts
12-Oct-20 17:44 40.542806 -105.290008 148 17136ft 284kts
12-Oct-20 17:45 40.480451 -105.225253 148 16318ft 291kts
12-Oct-20 17:46 40.416830 -105.158646 140 15367ft 296kts
12-Oct-20 17:47 40.369973 -105.068850 128 14542ft 299kts
12-Oct-20 17:48 40.322974 -104.978841 128 13768ft 300kts
12-Oct-20 17:49 40.274534 -104.888671 128 13090ft 302kts
12-Oct-20 17:50 40.225600 -104.799538 128 12596ft 301kts
12-Oct-20 17:51 40.179316 -104.716372 145 11250ft 257kts
12-Oct-20 17:52 40.126984 -104.661992 150 9765ft 228kts
12-Oct-20 17:53 40.070732 -104.657641 186 8259ft 200kts
12-Oct-20 17:54 40.021440 -104.658118 189 8033ft 154kts
12-Oct-20 17:55 39.979978 -104.658770 187 7761ft 159kts
12-Oct-20 17:56 39.937757 -104.659293 187 6971ft 146kts
12-Oct-20 17:57 39.897724 -104.659723 185 6189ft 144kts
12-Oct-20 17:58 39.861165 -104.659944 185 5492ft 113kts
12-Oct-20 17:59 39.841372 -104.661127 209 5437ft 53kts
12-Oct-20 18:00 39.838225 -104.664401 245 5437ft 20kts

Navigation Log

Ident Type
Flight plan parsing failed, navigation log unavailable